sensor_id;sensor_type;location;lat;lon;timestamp;P1;durP1;ratioP1;P2;durP2;ratioP2
71003;SDS011;59025;42.050;-8.660;2022-12-18T00:02:17;8.65;;;2.88;;
71003;SDS011;59025;42.050;-8.660;2022-12-18T00:04:44;8.73;;;3.40;;
71003;SDS011;59025;42.050;-8.660;2022-12-18T00:07:13;7.85;;;2.78;;
71003;SDS011;59025;42.050;-8.660;2022-12-18T00:09:41;7.80;;;2.60;;
71003;SDS011;59025;42.050;-8.660;2022-12-18T00:12:08;9.35;;;2.40;;
71003;SDS011;59025;42.050;-8.660;2022-12-18T00:14:36;5.88;;;2.40;;
71003;SDS011;59025;42.050;-8.660;2022-12-18T00:17:03;7.40;;;2.35;;
71003;SDS011;59025;42.050;-8.660;2022-12-18T00:19:31;6.82;;;2.50;;
71003;SDS011;59025;42.050;-8.660;2022-12-18T00:21:58;12.17;;;3.30;;
71003;SDS011;59025;42.050;-8.660;2022-12-18T00:24:27;7.18;;;2.90;;
71003;SDS011;59025;42.050;-8.660;2022-12-18T00:26:55;7.15;;;2.47;;
71003;SDS011;59025;42.050;-8.660;2022-12-18T00:29:22;7.15;;;2.80;;
71003;SDS011;59025;42.050;-8.660;2022-12-18T00:31:50;8.68;;;3.03;;
71003;SDS011;59025;42.050;-8.660;2022-12-18T00:34:17;8.07;;;2.27;;
71003;SDS011;59025;42.050;-8.660;2022-12-18T00:36:46;8.40;;;2.80;;
71003;SDS011;59025;42.050;-8.660;2022-12-18T00:39:14;8.13;;;2.85;;
71003;SDS011;59025;42.050;-8.660;2022-12-18T00:41:43;6.70;;;2.60;;
71003;SDS011;59025;42.050;-8.660;2022-12-18T00:44:28;4.28;;;1.90;;
71003;SDS011;59025;42.050;-8.660;2022-12-18T00:46:56;11.27;;;3.13;;
71003;SDS011;59025;42.050;-8.660;2022-12-18T00:49:23;6.93;;;2.55;;
71003;SDS011;59025;42.050;-8.660;2022-12-18T00:51:51;5.80;;;2.58;;
71003;SDS011;59025;42.050;-8.660;2022-12-18T00:54:18;8.23;;;3.20;;
71003;SDS011;59025;42.050;-8.660;2022-12-18T00:56:47;7.40;;;2.97;;
71003;SDS011;59025;42.050;-8.660;2022-12-18T00:59:15;3.90;;;1.73;;
71003;SDS011;59025;42.050;-8.660;2022-12-18T01:01:42;8.27;;;2.70;;
71003;SDS011;59025;42.050;-8.660;2022-12-18T01:04:10;12.45;;;3.40;;
71003;SDS011;59025;42.050;-8.660;2022-12-18T01:06:37;9.90;;;3.50;;
71003;SDS011;59025;42.050;-8.660;2022-12-18T01:09:05;9.50;;;3.25;;
71003;SDS011;59025;42.050;-8.660;2022-12-18T01:11:32;12.30;;;3.13;;
71003;SDS011;59025;42.050;-8.660;2022-12-18T01:14:02;8.48;;;3.00;;
71003;SDS011;59025;42.050;-8.660;2022-12-18T01:16:29;9.18;;;2.70;;
71003;SDS011;59025;42.050;-8.660;2022-12-18T01:18:56;6.40;;;2.85;;
71003;SDS011;59025;42.050;-8.660;2022-12-18T01:21:24;7.20;;;2.72;;
71003;SDS011;59025;42.050;-8.660;2022-12-18T01:23:52;8.10;;;3.00;;
71003;SDS011;59025;42.050;-8.660;2022-12-18T01:26:20;8.18;;;2.65;;
71003;SDS011;59025;42.050;-8.660;2022-12-18T01:28:48;9.57;;;2.90;;
71003;SDS011;59025;42.050;-8.660;2022-12-18T01:31:18;9.20;;;2.95;;
71003;SDS011;59025;42.050;-8.660;2022-12-18T01:33:47;4.93;;;2.10;;
71003;SDS011;59025;42.050;-8.660;2022-12-18T01:36:17;7.00;;;3.13;;
71003;SDS011;59025;42.050;-8.660;2022-12-18T01:38:45;6.20;;;2.13;;
71003;SDS011;59025;42.050;-8.660;2022-12-18T01:41:14;7.20;;;2.60;;
71003;SDS011;59025;42.050;-8.660;2022-12-18T01:43:50;9.20;;;2.67;;
71003;SDS011;59025;42.050;-8.660;2022-12-18T01:46:22;6.45;;;2.50;;
71003;SDS011;59025;42.050;-8.660;2022-12-18T01:48:50;8.63;;;2.83;;
71003;SDS011;59025;42.050;-8.660;2022-12-18T01:51:20;10.05;;;2.70;;
71003;SDS011;59025;42.050;-8.660;2022-12-18T01:53:48;7.05;;;2.97;;
71003;SDS011;59025;42.050;-8.660;2022-12-18T01:56:16;7.72;;;2.97;;
71003;SDS011;59025;42.050;-8.660;2022-12-18T01:58:49;10.48;;;3.40;;
71003;SDS011;59025;42.050;-8.660;2022-12-18T02:01:23;7.07;;;2.80;;
71003;SDS011;59025;42.050;-8.660;2022-12-18T02:03:52;9.52;;;2.78;;
71003;SDS011;59025;42.050;-8.660;2022-12-18T02:06:20;8.73;;;2.53;;
71003;SDS011;59025;42.050;-8.660;2022-12-18T02:08:54;8.65;;;2.88;;
71003;SDS011;59025;42.050;-8.660;2022-12-18T02:11:31;7.20;;;2.47;;
71003;SDS011;59025;42.050;-8.660;2022-12-18T02:14:09;7.23;;;2.47;;
71003;SDS011;59025;42.050;-8.660;2022-12-18T02:16:46;9.73;;;2.70;;
71003;SDS011;59025;42.050;-8.660;2022-12-18T02:19:27;5.65;;;2.22;;
71003;SDS011;59025;42.050;-8.660;2022-12-18T02:22:20;10.25;;;2.53;;
71003;SDS011;59025;42.050;-8.660;2022-12-18T02:24:59;6.47;;;2.50;;
71003;SDS011;59025;42.050;-8.660;2022-12-18T02:27:36;8.60;;;2.60;;
71003;SDS011;59025;42.050;-8.660;2022-12-18T02:30:07;6.28;;;2.65;;
71003;SDS011;59025;42.050;-8.660;2022-12-18T02:32:37;7.18;;;2.60;;
71003;SDS011;59025;42.050;-8.660;2022-12-18T02:35:10;9.00;;;2.35;;
71003;SDS011;59025;42.050;-8.660;2022-12-18T02:37:40;6.03;;;2.03;;
71003;SDS011;59025;42.050;-8.660;2022-12-18T02:40:10;5.43;;;2.57;;
71003;SDS011;59025;42.050;-8.660;2022-12-18T02:42:42;8.52;;;2.33;;
71003;SDS011;59025;42.050;-8.660;2022-12-18T02:45:10;7.72;;;2.60;;
71003;SDS011;59025;42.050;-8.660;2022-12-18T02:47:38;8.50;;;2.85;;
71003;SDS011;59025;42.050;-8.660;2022-12-18T02:50:10;4.57;;;2.20;;
71003;SDS011;59025;42.050;-8.660;2022-12-18T02:52:45;8.93;;;2.70;;
71003;SDS011;59025;42.050;-8.660;2022-12-18T02:55:26;8.82;;;2.55;;
71003;SDS011;59025;42.050;-8.660;2022-12-18T02:58:03;8.02;;;2.30;;
71003;SDS011;59025;42.050;-8.660;2022-12-18T03:00:37;7.65;;;2.47;;
71003;SDS011;59025;42.050;-8.660;2022-12-18T03:03:09;5.40;;;2.30;;
71003;SDS011;59025;42.050;-8.660;2022-12-18T03:05:43;4.90;;;2.37;;
71003;SDS011;59025;42.050;-8.660;2022-12-18T03:08:14;9.75;;;2.60;;
71003;SDS011;59025;42.050;-8.660;2022-12-18T03:10:48;5.97;;;2.20;;
71003;SDS011;59025;42.050;-8.660;2022-12-18T03:13:23;5.38;;;2.13;;
71003;SDS011;59025;42.050;-8.660;2022-12-18T03:15:55;8.07;;;2.47;;
71003;SDS011;59025;42.050;-8.660;2022-12-18T03:18:27;3.60;;;1.53;;
71003;SDS011;59025;42.050;-8.660;2022-12-18T03:21:00;9.75;;;2.22;;
71003;SDS011;59025;42.050;-8.660;2022-12-18T03:23:33;7.85;;;2.35;;
71003;SDS011;59025;42.050;-8.660;2022-12-18T03:26:04;5.07;;;2.13;;
71003;SDS011;59025;42.050;-8.660;2022-12-18T03:28:38;6.63;;;2.33;;
71003;SDS011;59025;42.050;-8.660;2022-12-18T03:31:11;4.23;;;1.23;;
71003;SDS011;59025;42.050;-8.660;2022-12-18T03:33:40;4.30;;;1.88;;
71003;SDS011;59025;42.050;-8.660;2022-12-18T03:36:12;7.97;;;2.20;;
71003;SDS011;59025;42.050;-8.660;2022-12-18T03:38:40;9.25;;;2.20;;
71003;SDS011;59025;42.050;-8.660;2022-12-18T03:41:10;10.07;;;2.85;;
71003;SDS011;59025;42.050;-8.660;2022-12-18T03:43:48;3.97;;;1.67;;
71003;SDS011;59025;42.050;-8.660;2022-12-18T03:46:20;6.90;;;1.95;;
71003;SDS011;59025;42.050;-8.660;2022-12-18T03:48:56;6.75;;;2.30;;
71003;SDS011;59025;42.050;-8.660;2022-12-18T03:51:31;5.90;;;1.90;;
71003;SDS011;59025;42.050;-8.660;2022-12-18T03:54:04;5.22;;;2.00;;
71003;SDS011;59025;42.050;-8.660;2022-12-18T03:56:34;5.10;;;1.93;;
71003;SDS011;59025;42.050;-8.660;2022-12-18T03:59:07;2.40;;;1.58;;
71003;SDS011;59025;42.050;-8.660;2022-12-18T04:01:38;7.20;;;2.20;;
71003;SDS011;59025;42.050;-8.660;2022-12-18T04:04:09;6.07;;;2.05;;
71003;SDS011;59025;42.050;-8.660;2022-12-18T04:06:38;8.85;;;2.33;;
71003;SDS011;59025;42.050;-8.660;2022-12-18T04:09:07;5.53;;;1.87;;
71003;SDS011;59025;42.050;-8.660;2022-12-18T04:11:35;7.68;;;1.92;;
71003;SDS011;59025;42.050;-8.660;2022-12-18T04:14:03;7.70;;;2.10;;
71003;SDS011;59025;42.050;-8.660;2022-12-18T04:16:32;6.57;;;1.90;;
71003;SDS011;59025;42.050;-8.660;2022-12-18T04:18:59;7.55;;;2.25;;
71003;SDS011;59025;42.050;-8.660;2022-12-18T04:21:27;7.13;;;2.33;;
71003;SDS011;59025;42.050;-8.660;2022-12-18T04:23:54;5.25;;;1.80;;
71003;SDS011;59025;42.050;-8.660;2022-12-18T04:26:22;3.50;;;1.80;;
71003;SDS011;59025;42.050;-8.660;2022-12-18T04:28:49;3.85;;;1.67;;
71003;SDS011;59025;42.050;-8.660;2022-12-18T04:31:17;5.85;;;2.03;;
71003;SDS011;59025;42.050;-8.660;2022-12-18T04:33:46;6.77;;;1.90;;
71003;SDS011;59025;42.050;-8.660;2022-12-18T04:36:13;4.82;;;1.55;;
71003;SDS011;59025;42.050;-8.660;2022-12-18T04:38:41;3.85;;;1.98;;
71003;SDS011;59025;42.050;-8.660;2022-12-18T04:41:08;1.73;;;1.02;;
71003;SDS011;59025;42.050;-8.660;2022-12-18T04:43:36;4.88;;;1.92;;
71003;SDS011;59025;42.050;-8.660;2022-12-18T04:46:04;3.10;;;1.60;;
71003;SDS011;59025;42.050;-8.660;2022-12-18T04:48:33;4.70;;;1.77;;
71003;SDS011;59025;42.050;-8.660;2022-12-18T04:51:02;5.35;;;1.40;;
71003;SDS011;59025;42.050;-8.660;2022-12-18T04:53:30;4.53;;;1.50;;
71003;SDS011;59025;42.050;-8.660;2022-12-18T04:56:05;4.38;;;2.15;;
71003;SDS011;59025;42.050;-8.660;2022-12-18T04:58:34;6.30;;;1.57;;
71003;SDS011;59025;42.050;-8.660;2022-12-18T05:01:02;7.20;;;2.03;;
71003;SDS011;59025;42.050;-8.660;2022-12-18T05:03:29;4.47;;;1.75;;
71003;SDS011;59025;42.050;-8.660;2022-12-18T05:05:57;3.28;;;1.40;;
71003;SDS011;59025;42.050;-8.660;2022-12-18T05:08:26;4.32;;;1.40;;
71003;SDS011;59025;42.050;-8.660;2022-12-18T05:10:58;3.27;;;1.33;;
71003;SDS011;59025;42.050;-8.660;2022-12-18T05:13:26;3.00;;;1.30;;
71003;SDS011;59025;42.050;-8.660;2022-12-18T05:15:53;4.15;;;1.80;;
71003;SDS011;59025;42.050;-8.660;2022-12-18T05:18:21;3.55;;;1.60;;
71003;SDS011;59025;42.050;-8.660;2022-12-18T05:20:49;3.47;;;1.60;;
71003;SDS011;59025;42.050;-8.660;2022-12-18T05:23:17;7.87;;;1.77;;
71003;SDS011;59025;42.050;-8.660;2022-12-18T05:25:50;4.55;;;1.23;;
71003;SDS011;59025;42.050;-8.660;2022-12-18T05:28:18;2.90;;;1.30;;
71003;SDS011;59025;42.050;-8.660;2022-12-18T05:30:47;5.20;;;1.80;;
71003;SDS011;59025;42.050;-8.660;2022-12-18T05:33:16;5.28;;;1.58;;
71003;SDS011;59025;42.050;-8.660;2022-12-18T05:35:43;5.63;;;1.73;;
71003;SDS011;59025;42.050;-8.660;2022-12-18T05:38:11;7.30;;;1.75;;
71003;SDS011;59025;42.050;-8.660;2022-12-18T05:40:41;4.13;;;1.50;;
71003;SDS011;59025;42.050;-8.660;2022-12-18T05:43:10;4.20;;;1.55;;
71003;SDS011;59025;42.050;-8.660;2022-12-18T05:45:38;4.87;;;1.33;;
71003;SDS011;59025;42.050;-8.660;2022-12-18T05:48:06;3.20;;;1.50;;
71003;SDS011;59025;42.050;-8.660;2022-12-18T05:50:35;3.80;;;1.48;;
71003;SDS011;59025;42.050;-8.660;2022-12-18T05:53:02;3.22;;;1.38;;
71003;SDS011;59025;42.050;-8.660;2022-12-18T05:55:32;4.25;;;1.42;;
71003;SDS011;59025;42.050;-8.660;2022-12-18T05:58:00;4.50;;;1.48;;
71003;SDS011;59025;42.050;-8.660;2022-12-18T06:00:29;4.13;;;1.30;;
71003;SDS011;59025;42.050;-8.660;2022-12-18T06:02:57;3.70;;;1.30;;
71003;SDS011;59025;42.050;-8.660;2022-12-18T06:05:24;4.45;;;1.58;;
71003;SDS011;59025;42.050;-8.660;2022-12-18T06:07:52;3.53;;;1.55;;
71003;SDS011;59025;42.050;-8.660;2022-12-18T06:10:20;3.05;;;1.40;;
71003;SDS011;59025;42.050;-8.660;2022-12-18T06:12:47;5.57;;;1.50;;
71003;SDS011;59025;42.050;-8.660;2022-12-18T06:15:15;3.50;;;1.20;;
71003;SDS011;59025;42.050;-8.660;2022-12-18T06:17:44;4.63;;;1.40;;
71003;SDS011;59025;42.050;-8.660;2022-12-18T06:20:11;3.72;;;1.40;;
71003;SDS011;59025;42.050;-8.660;2022-12-18T06:22:39;4.20;;;1.10;;
71003;SDS011;59025;42.050;-8.660;2022-12-18T06:25:06;5.63;;;1.20;;
71003;SDS011;59025;42.050;-8.660;2022-12-18T06:27:35;3.47;;;1.50;;
71003;SDS011;59025;42.050;-8.660;2022-12-18T06:30:02;4.53;;;1.58;;
71003;SDS011;59025;42.050;-8.660;2022-12-18T06:32:30;2.33;;;1.02;;
71003;SDS011;59025;42.050;-8.660;2022-12-18T06:34:59;2.78;;;1.13;;
71003;SDS011;59025;42.050;-8.660;2022-12-18T06:37:27;4.53;;;1.57;;
71003;SDS011;59025;42.050;-8.660;2022-12-18T06:39:54;2.60;;;1.00;;
71003;SDS011;59025;42.050;-8.660;2022-12-18T06:42:23;3.53;;;1.70;;
71003;SDS011;59025;42.050;-8.660;2022-12-18T06:44:50;3.33;;;1.30;;
71003;SDS011;59025;42.050;-8.660;2022-12-18T06:47:18;1.90;;;1.20;;
71003;SDS011;59025;42.050;-8.660;2022-12-18T06:49:45;2.17;;;1.23;;
71003;SDS011;59025;42.050;-8.660;2022-12-18T06:52:14;4.35;;;1.45;;
71003;SDS011;59025;42.050;-8.660;2022-12-18T06:54:42;4.78;;;1.27;;
71003;SDS011;59025;42.050;-8.660;2022-12-18T06:57:09;2.58;;;1.38;;
71003;SDS011;59025;42.050;-8.660;2022-12-18T06:59:37;5.35;;;1.40;;
71003;SDS011;59025;42.050;-8.660;2022-12-18T07:02:05;5.43;;;1.30;;
71003;SDS011;59025;42.050;-8.660;2022-12-18T07:04:32;3.53;;;1.30;;
71003;SDS011;59025;42.050;-8.660;2022-12-18T07:07:00;4.38;;;1.52;;
71003;SDS011;59025;42.050;-8.660;2022-12-18T07:09:29;4.50;;;1.17;;
71003;SDS011;59025;42.050;-8.660;2022-12-18T07:11:56;4.03;;;1.23;;
71003;SDS011;59025;42.050;-8.660;2022-12-18T07:14:24;1.87;;;1.10;;
71003;SDS011;59025;42.050;-8.660;2022-12-18T07:16:51;3.30;;;1.30;;
71003;SDS011;59025;42.050;-8.660;2022-12-18T07:19:19;4.25;;;1.35;;
71003;SDS011;59025;42.050;-8.660;2022-12-18T07:21:49;1.85;;;1.05;;
71003;SDS011;59025;42.050;-8.660;2022-12-18T07:24:17;4.30;;;1.20;;
71003;SDS011;59025;42.050;-8.660;2022-12-18T07:26:46;4.03;;;1.30;;
71003;SDS011;59025;42.050;-8.660;2022-12-18T07:29:14;3.30;;;1.20;;
71003;SDS011;59025;42.050;-8.660;2022-12-18T07:31:42;2.55;;;1.52;;
71003;SDS011;59025;42.050;-8.660;2022-12-18T07:34:10;2.88;;;1.15;;
71003;SDS011;59025;42.050;-8.660;2022-12-18T07:36:38;2.42;;;1.40;;
71003;SDS011;59025;42.050;-8.660;2022-12-18T07:39:05;2.63;;;1.17;;
71003;SDS011;59025;42.050;-8.660;2022-12-18T07:41:33;2.78;;;1.10;;
71003;SDS011;59025;42.050;-8.660;2022-12-18T07:44:02;2.45;;;1.08;;
71003;SDS011;59025;42.050;-8.660;2022-12-18T07:46:30;1.67;;;1.10;;
71003;SDS011;59025;42.050;-8.660;2022-12-18T07:48:57;2.10;;;1.10;;
71003;SDS011;59025;42.050;-8.660;2022-12-18T07:51:25;1.30;;;0.83;;
71003;SDS011;59025;42.050;-8.660;2022-12-18T07:53:52;2.47;;;1.25;;
71003;SDS011;59025;42.050;-8.660;2022-12-18T07:56:20;4.85;;;1.60;;
71003;SDS011;59025;42.050;-8.660;2022-12-18T07:58:47;4.30;;;1.17;;
71003;SDS011;59025;42.050;-8.660;2022-12-18T08:01:16;3.20;;;1.30;;
71003;SDS011;59025;42.050;-8.660;2022-12-18T08:03:44;3.10;;;1.60;;
71003;SDS011;59025;42.050;-8.660;2022-12-18T08:06:11;2.85;;;1.20;;
71003;SDS011;59025;42.050;-8.660;2022-12-18T08:08:39;1.63;;;1.05;;
71003;SDS011;59025;42.050;-8.660;2022-12-18T08:11:07;3.63;;;1.10;;
71003;SDS011;59025;42.050;-8.660;2022-12-18T08:13:35;3.63;;;1.20;;
71003;SDS011;59025;42.050;-8.660;2022-12-18T08:16:03;4.90;;;1.47;;
71003;SDS011;59025;42.050;-8.660;2022-12-18T08:18:33;4.07;;;1.10;;
71003;SDS011;59025;42.050;-8.660;2022-12-18T08:21:08;3.63;;;1.10;;
71003;SDS011;59025;42.050;-8.660;2022-12-18T08:23:36;3.17;;;1.25;;
71003;SDS011;59025;42.050;-8.660;2022-12-18T08:26:04;2.38;;;1.20;;
71003;SDS011;59025;42.050;-8.660;2022-12-18T08:28:31;5.37;;;1.47;;
71003;SDS011;59025;42.050;-8.660;2022-12-18T08:30:59;4.75;;;1.50;;
71003;SDS011;59025;42.050;-8.660;2022-12-18T08:33:27;2.03;;;1.20;;
71003;SDS011;59025;42.050;-8.660;2022-12-18T08:35:57;3.65;;;1.10;;
71003;SDS011;59025;42.050;-8.660;2022-12-18T08:38:25;2.55;;;1.20;;
71003;SDS011;59025;42.050;-8.660;2022-12-18T08:40:57;2.80;;;1.13;;
71003;SDS011;59025;42.050;-8.660;2022-12-18T08:43:26;4.50;;;1.30;;
71003;SDS011;59025;42.050;-8.660;2022-12-18T08:46:11;4.38;;;1.30;;
71003;SDS011;59025;42.050;-8.660;2022-12-18T08:48:38;4.32;;;1.40;;
71003;SDS011;59025;42.050;-8.660;2022-12-18T08:51:07;2.83;;;1.30;;
71003;SDS011;59025;42.050;-8.660;2022-12-18T08:53:35;2.67;;;1.23;;
71003;SDS011;59025;42.050;-8.660;2022-12-18T08:56:03;4.40;;;1.60;;
71003;SDS011;59025;42.050;-8.660;2022-12-18T08:58:31;2.70;;;1.20;;
71003;SDS011;59025;42.050;-8.660;2022-12-18T09:00:59;4.00;;;1.55;;
71003;SDS011;59025;42.050;-8.660;2022-12-18T09:03:28;2.65;;;1.40;;
71003;SDS011;59025;42.050;-8.660;2022-12-18T09:05:55;5.13;;;1.50;;
71003;SDS011;59025;42.050;-8.660;2022-12-18T09:08:25;3.15;;;1.13;;
71003;SDS011;59025;42.050;-8.660;2022-12-18T09:10:52;2.88;;;1.20;;
71003;SDS011;59025;42.050;-8.660;2022-12-18T09:13:20;5.05;;;1.83;;
71003;SDS011;59025;42.050;-8.660;2022-12-18T09:15:49;4.50;;;1.75;;
71003;SDS011;59025;42.050;-8.660;2022-12-18T09:18:19;3.53;;;1.50;;
71003;SDS011;59025;42.050;-8.660;2022-12-18T09:20:48;2.78;;;1.15;;
71003;SDS011;59025;42.050;-8.660;2022-12-18T09:23:17;4.63;;;1.30;;
71003;SDS011;59025;42.050;-8.660;2022-12-18T09:25:47;4.72;;;1.55;;
71003;SDS011;59025;42.050;-8.660;2022-12-18T09:28:15;5.47;;;1.50;;
71003;SDS011;59025;42.050;-8.660;2022-12-18T09:30:45;3.33;;;1.53;;
71003;SDS011;59025;42.050;-8.660;2022-12-18T09:33:14;5.82;;;1.83;;
71003;SDS011;59025;42.050;-8.660;2022-12-18T09:35:42;9.65;;;3.08;;
71003;SDS011;59025;42.050;-8.660;2022-12-18T09:38:11;6.78;;;2.38;;
71003;SDS011;59025;42.050;-8.660;2022-12-18T09:40:41;4.00;;;1.50;;
71003;SDS011;59025;42.050;-8.660;2022-12-18T09:43:13;4.73;;;1.37;;
71003;SDS011;59025;42.050;-8.660;2022-12-18T09:45:44;4.38;;;1.30;;
71003;SDS011;59025;42.050;-8.660;2022-12-18T09:48:18;2.70;;;1.27;;
71003;SDS011;59025;42.050;-8.660;2022-12-18T09:50:48;3.45;;;1.25;;
71003;SDS011;59025;42.050;-8.660;2022-12-18T09:53:19;3.80;;;1.38;;
71003;SDS011;59025;42.050;-8.660;2022-12-18T09:55:50;2.40;;;1.10;;
71003;SDS011;59025;42.050;-8.660;2022-12-18T09:58:24;4.25;;;1.50;;
71003;SDS011;59025;42.050;-8.660;2022-12-18T10:00:55;4.97;;;1.33;;
71003;SDS011;59025;42.050;-8.660;2022-12-18T10:03:23;4.07;;;1.70;;
71003;SDS011;59025;42.050;-8.660;2022-12-18T10:05:53;3.72;;;1.30;;
71003;SDS011;59025;42.050;-8.660;2022-12-18T10:08:32;5.20;;;1.57;;
71003;SDS011;59025;42.050;-8.660;2022-12-18T10:11:15;6.68;;;1.63;;
71003;SDS011;59025;42.050;-8.660;2022-12-18T10:13:56;2.78;;;1.20;;
71003;SDS011;59025;42.050;-8.660;2022-12-18T10:16:29;5.35;;;1.90;;
71003;SDS011;59025;42.050;-8.660;2022-12-18T10:19:11;3.58;;;1.27;;
71003;SDS011;59025;42.050;-8.660;2022-12-18T10:21:52;4.30;;;1.60;;
71003;SDS011;59025;42.050;-8.660;2022-12-18T10:24:30;5.13;;;1.73;;
71003;SDS011;59025;42.050;-8.660;2022-12-18T10:27:09;3.83;;;1.60;;
71003;SDS011;59025;42.050;-8.660;2022-12-18T10:29:42;4.57;;;1.75;;
71003;SDS011;59025;42.050;-8.660;2022-12-18T10:32:13;5.43;;;1.45;;
71003;SDS011;59025;42.050;-8.660;2022-12-18T10:34:46;6.07;;;1.40;;
71003;SDS011;59025;42.050;-8.660;2022-12-18T10:37:15;6.45;;;1.60;;
71003;SDS011;59025;42.050;-8.660;2022-12-18T10:39:45;5.00;;;1.95;;
71003;SDS011;59025;42.050;-8.660;2022-12-18T10:42:16;3.28;;;1.20;;
71003;SDS011;59025;42.050;-8.660;2022-12-18T10:44:46;9.75;;;4.50;;
71003;SDS011;59025;42.050;-8.660;2022-12-18T10:47:28;4.47;;;1.70;;
71003;SDS011;59025;42.050;-8.660;2022-12-18T10:49:56;5.55;;;1.88;;
71003;SDS011;59025;42.050;-8.660;2022-12-18T10:52:24;4.60;;;1.52;;
71003;SDS011;59025;42.050;-8.660;2022-12-18T10:54:54;5.53;;;2.10;;
71003;SDS011;59025;42.050;-8.660;2022-12-18T10:57:31;4.78;;;1.80;;
71003;SDS011;59025;42.050;-8.660;2022-12-18T11:00:19;5.67;;;2.30;;
71003;SDS011;59025;42.050;-8.660;2022-12-18T11:02:52;6.55;;;1.70;;
71003;SDS011;59025;42.050;-8.660;2022-12-18T11:05:25;5.43;;;2.05;;
71003;SDS011;59025;42.050;-8.660;2022-12-18T11:07:54;7.53;;;2.00;;
71003;SDS011;59025;42.050;-8.660;2022-12-18T11:10:23;6.32;;;2.40;;
71003;SDS011;59025;42.050;-8.660;2022-12-18T11:12:55;6.77;;;2.67;;
71003;SDS011;59025;42.050;-8.660;2022-12-18T11:15:26;4.30;;;1.45;;
71003;SDS011;59025;42.050;-8.660;2022-12-18T11:17:56;8.32;;;2.25;;
71003;SDS011;59025;42.050;-8.660;2022-12-18T11:20:27;3.63;;;1.52;;
71003;SDS011;59025;42.050;-8.660;2022-12-18T11:22:59;4.82;;;1.92;;
71003;SDS011;59025;42.050;-8.660;2022-12-18T11:25:29;4.20;;;1.90;;
71003;SDS011;59025;42.050;-8.660;2022-12-18T11:27:58;5.65;;;1.65;;
71003;SDS011;59025;42.050;-8.660;2022-12-18T11:30:29;5.53;;;1.80;;
71003;SDS011;59025;42.050;-8.660;2022-12-18T11:32:59;3.78;;;1.75;;
71003;SDS011;59025;42.050;-8.660;2022-12-18T11:35:42;4.43;;;1.73;;
71003;SDS011;59025;42.050;-8.660;2022-12-18T11:38:18;8.33;;;2.00;;
71003;SDS011;59025;42.050;-8.660;2022-12-18T11:40:51;7.63;;;2.30;;
71003;SDS011;59025;42.050;-8.660;2022-12-18T11:43:25;3.78;;;1.83;;
71003;SDS011;59025;42.050;-8.660;2022-12-18T11:48:30;13.98;;;6.53;;
71003;SDS011;59025;42.050;-8.660;2022-12-18T11:51:01;8.10;;;3.03;;
71003;SDS011;59025;42.050;-8.660;2022-12-18T11:53:32;7.30;;;2.53;;
71003;SDS011;59025;42.050;-8.660;2022-12-18T11:56:05;7.18;;;2.20;;
71003;SDS011;59025;42.050;-8.660;2022-12-18T11:58:55;7.75;;;2.40;;
71003;SDS011;59025;42.050;-8.660;2022-12-18T12:01:34;7.30;;;2.85;;
71003;SDS011;59025;42.050;-8.660;2022-12-18T12:04:16;5.73;;;2.30;;
71003;SDS011;59025;42.050;-8.660;2022-12-18T12:07:12;7.20;;;2.30;;
71003;SDS011;59025;42.050;-8.660;2022-12-18T12:09:49;8.35;;;2.50;;
71003;SDS011;59025;42.050;-8.660;2022-12-18T12:12:30;4.45;;;2.03;;
71003;SDS011;59025;42.050;-8.660;2022-12-18T12:15:13;10.82;;;5.20;;
71003;SDS011;59025;42.050;-8.660;2022-12-18T12:17:50;13.07;;;3.93;;
71003;SDS011;59025;42.050;-8.660;2022-12-18T12:20:25;8.88;;;2.90;;
71003;SDS011;59025;42.050;-8.660;2022-12-18T12:23:09;7.07;;;2.70;;
71003;SDS011;59025;42.050;-8.660;2022-12-18T12:25:44;10.10;;;3.50;;
71003;SDS011;59025;42.050;-8.660;2022-12-18T12:28:18;7.78;;;2.30;;
71003;SDS011;59025;42.050;-8.660;2022-12-18T12:30:55;8.47;;;3.07;;
71003;SDS011;59025;42.050;-8.660;2022-12-18T12:33:33;8.15;;;2.75;;
71003;SDS011;59025;42.050;-8.660;2022-12-18T12:36:11;7.13;;;2.15;;
71003;SDS011;59025;42.050;-8.660;2022-12-18T12:38:44;5.78;;;2.30;;
71003;SDS011;59025;42.050;-8.660;2022-12-18T12:41:17;8.27;;;2.78;;
71003;SDS011;59025;42.050;-8.660;2022-12-18T12:44:01;6.17;;;2.40;;
71003;SDS011;59025;42.050;-8.660;2022-12-18T12:46:32;8.15;;;2.63;;
71003;SDS011;59025;42.050;-8.660;2022-12-18T12:49:04;12.57;;;3.95;;
71003;SDS011;59025;42.050;-8.660;2022-12-18T12:51:40;9.88;;;3.10;;
71003;SDS011;59025;42.050;-8.660;2022-12-18T12:54:12;11.32;;;3.55;;
71003;SDS011;59025;42.050;-8.660;2022-12-18T12:56:45;9.57;;;3.80;;
71003;SDS011;59025;42.050;-8.660;2022-12-18T12:59:19;11.35;;;4.55;;
71003;SDS011;59025;42.050;-8.660;2022-12-18T13:01:57;8.13;;;3.47;;
71003;SDS011;59025;42.050;-8.660;2022-12-18T13:04:33;7.43;;;2.88;;
71003;SDS011;59025;42.050;-8.660;2022-12-18T13:07:10;10.00;;;4.15;;
71003;SDS011;59025;42.050;-8.660;2022-12-18T13:12:55;8.13;;;2.40;;
71003;SDS011;59025;42.050;-8.660;2022-12-18T13:15:24;3.22;;;1.60;;
71003;SDS011;59025;42.050;-8.660;2022-12-18T13:20:45;9.38;;;2.50;;
71003;SDS011;59025;42.050;-8.660;2022-12-18T13:23:28;6.00;;;2.00;;
71003;SDS011;59025;42.050;-8.660;2022-12-18T13:28:57;4.70;;;2.08;;
71003;SDS011;59025;42.050;-8.660;2022-12-18T13:34:26;4.95;;;1.70;;
71003;SDS011;59025;42.050;-8.660;2022-12-18T13:36:56;4.13;;;1.30;;
71003;SDS011;59025;42.050;-8.660;2022-12-18T13:39:45;5.10;;;1.60;;
71003;SDS011;59025;42.050;-8.660;2022-12-18T13:42:36;6.18;;;1.77;;
71003;SDS011;59025;42.050;-8.660;2022-12-18T13:45:39;5.30;;;1.73;;
71003;SDS011;59025;42.050;-8.660;2022-12-18T13:48:16;3.40;;;1.52;;
71003;SDS011;59025;42.050;-8.660;2022-12-18T13:50:48;4.07;;;1.50;;
71003;SDS011;59025;42.050;-8.660;2022-12-18T13:53:20;4.30;;;1.50;;
71003;SDS011;59025;42.050;-8.660;2022-12-18T13:55:52;3.17;;;1.20;;
71003;SDS011;59025;42.050;-8.660;2022-12-18T13:58:20;4.15;;;1.65;;
71003;SDS011;59025;42.050;-8.660;2022-12-18T14:00:47;3.08;;;1.42;;
71003;SDS011;59025;42.050;-8.660;2022-12-18T14:03:19;5.67;;;1.60;;
71003;SDS011;59025;42.050;-8.660;2022-12-18T14:05:52;2.90;;;1.33;;
71003;SDS011;59025;42.050;-8.660;2022-12-18T14:08:25;7.22;;;2.00;;
71003;SDS011;59025;42.050;-8.660;2022-12-18T14:11:00;4.95;;;1.83;;
71003;SDS011;59025;42.050;-8.660;2022-12-18T14:13:31;2.65;;;1.20;;
71003;SDS011;59025;42.050;-8.660;2022-12-18T14:16:01;4.83;;;1.73;;
71003;SDS011;59025;42.050;-8.660;2022-12-18T14:18:34;5.30;;;1.90;;
71003;SDS011;59025;42.050;-8.660;2022-12-18T14:21:14;4.05;;;1.65;;
71003;SDS011;59025;42.050;-8.660;2022-12-18T14:23:44;5.70;;;1.77;;
71003;SDS011;59025;42.050;-8.660;2022-12-18T14:26:26;5.45;;;2.30;;
71003;SDS011;59025;42.050;-8.660;2022-12-18T14:28:55;5.77;;;2.30;;
71003;SDS011;59025;42.050;-8.660;2022-12-18T14:31:24;6.65;;;2.90;;
71003;SDS011;59025;42.050;-8.660;2022-12-18T14:33:53;6.88;;;2.42;;
71003;SDS011;59025;42.050;-8.660;2022-12-18T14:36:22;6.82;;;2.40;;
71003;SDS011;59025;42.050;-8.660;2022-12-18T14:38:51;7.90;;;2.70;;
71003;SDS011;59025;42.050;-8.660;2022-12-18T14:41:20;6.90;;;2.50;;
71003;SDS011;59025;42.050;-8.660;2022-12-18T14:43:51;6.60;;;1.83;;
71003;SDS011;59025;42.050;-8.660;2022-12-18T14:46:33;5.80;;;2.15;;
71003;SDS011;59025;42.050;-8.660;2022-12-18T14:49:03;4.50;;;1.60;;
71003;SDS011;59025;42.050;-8.660;2022-12-18T14:51:46;5.18;;;1.70;;
71003;SDS011;59025;42.050;-8.660;2022-12-18T14:54:16;6.77;;;2.40;;
71003;SDS011;59025;42.050;-8.660;2022-12-18T14:56:46;13.45;;;5.00;;
71003;SDS011;59025;42.050;-8.660;2022-12-18T14:59:17;6.60;;;2.50;;
71003;SDS011;59025;42.050;-8.660;2022-12-18T15:01:56;2.72;;;1.30;;
71003;SDS011;59025;42.050;-8.660;2022-12-18T15:04:27;8.82;;;3.28;;
71003;SDS011;59025;42.050;-8.660;2022-12-18T15:10:00;6.15;;;2.25;;
71003;SDS011;59025;42.050;-8.660;2022-12-18T15:12:36;5.32;;;2.08;;
71003;SDS011;59025;42.050;-8.660;2022-12-18T15:18:11;5.80;;;1.95;;